sensor_id;sensor_type;location;lat;lon;timestamp;P1;durP1;ratioP1;P2;durP2;ratioP2
22064;SDS011;11197;53.110;8.468;2023-01-29T00:01:07;20.35;;;11.48;;
22064;SDS011;11197;53.110;8.468;2023-01-29T00:03:33;18.52;;;11.52;;
22064;SDS011;11197;53.110;8.468;2023-01-29T00:06:03;19.30;;;11.95;;
22064;SDS011;11197;53.110;8.468;2023-01-29T00:08:37;18.02;;;11.38;;
22064;SDS011;11197;53.110;8.468;2023-01-29T00:11:04;19.55;;;11.70;;
22064;SDS011;11197;53.110;8.468;2023-01-29T00:13:31;20.80;;;11.63;;
22064;SDS011;11197;53.110;8.468;2023-01-29T00:15:58;19.02;;;12.05;;
22064;SDS011;11197;53.110;8.468;2023-01-29T00:18:28;20.48;;;11.63;;
22064;SDS011;11197;53.110;8.468;2023-01-29T00:20:54;19.85;;;12.32;;
22064;SDS011;11197;53.110;8.468;2023-01-29T00:23:20;19.83;;;12.23;;
22064;SDS011;11197;53.110;8.468;2023-01-29T00:25:47;20.85;;;12.77;;
22064;SDS011;11197;53.110;8.468;2023-01-29T00:28:13;21.20;;;12.38;;
22064;SDS011;11197;53.110;8.468;2023-01-29T00:30:39;22.27;;;12.45;;
22064;SDS011;11197;53.110;8.468;2023-01-29T00:33:06;22.08;;;12.52;;
22064;SDS011;11197;53.110;8.468;2023-01-29T00:35:32;23.15;;;12.90;;
22064;SDS011;11197;53.110;8.468;2023-01-29T00:37:58;23.88;;;13.10;;
22064;SDS011;11197;53.110;8.468;2023-01-29T00:40:26;21.48;;;12.85;;
22064;SDS011;11197;53.110;8.468;2023-01-29T00:42:52;20.88;;;12.77;;
22064;SDS011;11197;53.110;8.468;2023-01-29T00:45:37;24.02;;;13.27;;
22064;SDS011;11197;53.110;8.468;2023-01-29T00:48:04;20.65;;;12.20;;
22064;SDS011;11197;53.110;8.468;2023-01-29T00:50:30;21.80;;;12.93;;
22064;SDS011;11197;53.110;8.468;2023-01-29T00:52:56;21.25;;;12.90;;
22064;SDS011;11197;53.110;8.468;2023-01-29T00:55:23;20.80;;;12.05;;
22064;SDS011;11197;53.110;8.468;2023-01-29T00:57:49;21.27;;;12.38;;
22064;SDS011;11197;53.110;8.468;2023-01-29T01:00:16;22.92;;;12.75;;
22064;SDS011;11197;53.110;8.468;2023-01-29T01:02:44;20.90;;;12.80;;
22064;SDS011;11197;53.110;8.468;2023-01-29T01:05:28;19.92;;;12.85;;
22064;SDS011;11197;53.110;8.468;2023-01-29T01:07:56;22.80;;;12.98;;
22064;SDS011;11197;53.110;8.468;2023-01-29T01:10:29;20.98;;;13.15;;
22064;SDS011;11197;53.110;8.468;2023-01-29T01:13:00;20.67;;;13.05;;
22064;SDS011;11197;53.110;8.468;2023-01-29T01:15:30;19.63;;;12.38;;
22064;SDS011;11197;53.110;8.468;2023-01-29T01:17:59;22.30;;;13.03;;
22064;SDS011;11197;53.110;8.468;2023-01-29T01:20:27;21.88;;;12.70;;
22064;SDS011;11197;53.110;8.468;2023-01-29T01:22:55;22.15;;;13.05;;
22064;SDS011;11197;53.110;8.468;2023-01-29T01:25:22;21.45;;;13.32;;
22064;SDS011;11197;53.110;8.468;2023-01-29T01:27:53;20.38;;;12.57;;
22064;SDS011;11197;53.110;8.468;2023-01-29T01:30:20;21.92;;;13.55;;
22064;SDS011;11197;53.110;8.468;2023-01-29T01:32:47;21.60;;;13.75;;
22064;SDS011;11197;53.110;8.468;2023-01-29T01:35:13;23.17;;;13.73;;
22064;SDS011;11197;53.110;8.468;2023-01-29T01:37:39;22.77;;;14.30;;
22064;SDS011;11197;53.110;8.468;2023-01-29T01:40:16;20.95;;;13.48;;
22064;SDS011;11197;53.110;8.468;2023-01-29T01:42:46;20.42;;;13.20;;
22064;SDS011;11197;53.110;8.468;2023-01-29T01:45:28;21.23;;;13.48;;
22064;SDS011;11197;53.110;8.468;2023-01-29T01:53:07;23.38;;;13.60;;
22064;SDS011;11197;53.110;8.468;2023-01-29T01:55:43;22.83;;;14.18;;
22064;SDS011;11197;53.110;8.468;2023-01-29T01:58:18;23.20;;;14.38;;
22064;SDS011;11197;53.110;8.468;2023-01-29T02:00:50;23.27;;;14.20;;
22064;SDS011;11197;53.110;8.468;2023-01-29T02:03:16;23.27;;;14.30;;
22064;SDS011;11197;53.110;8.468;2023-01-29T02:06:03;24.70;;;14.30;;
22064;SDS011;11197;53.110;8.468;2023-01-29T02:08:50;23.20;;;13.70;;
22064;SDS011;11197;53.110;8.468;2023-01-29T02:11:40;22.20;;;14.23;;
22064;SDS011;11197;53.110;8.468;2023-01-29T02:14:06;25.63;;;15.10;;
22064;SDS011;11197;53.110;8.468;2023-01-29T02:16:34;24.77;;;15.32;;
22064;SDS011;11197;53.110;8.468;2023-01-29T02:19:02;28.80;;;15.63;;
22064;SDS011;11197;53.110;8.468;2023-01-29T02:22:05;24.65;;;15.43;;
22064;SDS011;11197;53.110;8.468;2023-01-29T02:27:20;26.88;;;15.25;;
22064;SDS011;11197;53.110;8.468;2023-01-29T02:30:07;23.85;;;14.48;;
22064;SDS011;11197;53.110;8.468;2023-01-29T02:32:40;25.02;;;15.18;;
22064;SDS011;11197;53.110;8.468;2023-01-29T02:36:23;26.10;;;15.45;;
22064;SDS011;11197;53.110;8.468;2023-01-29T02:41:07;24.02;;;14.88;;
22064;SDS011;11197;53.110;8.468;2023-01-29T02:47:18;24.13;;;14.82;;
22064;SDS011;11197;53.110;8.468;2023-01-29T02:59:55;23.58;;;14.65;;
22064;SDS011;11197;53.110;8.468;2023-01-29T03:02:49;26.67;;;14.45;;
22064;SDS011;11197;53.110;8.468;2023-01-29T03:05:23;26.20;;;14.48;;
22064;SDS011;11197;53.110;8.468;2023-01-29T03:08:17;23.65;;;15.00;;
22064;SDS011;11197;53.110;8.468;2023-01-29T03:11:05;23.80;;;15.07;;
22064;SDS011;11197;53.110;8.468;2023-01-29T03:19:36;24.85;;;15.55;;
22064;SDS011;11197;53.110;8.468;2023-01-29T03:21:42;25.92;;;15.98;;
22064;SDS011;11197;53.110;8.468;2023-01-29T03:24:17;28.30;;;16.25;;
22064;SDS011;11197;53.110;8.468;2023-01-29T03:27:08;28.30;;;16.35;;
22064;SDS011;11197;53.110;8.468;2023-01-29T03:29:56;25.50;;;15.57;;
22064;SDS011;11197;53.110;8.468;2023-01-29T03:32:53;26.83;;;16.20;;
22064;SDS011;11197;53.110;8.468;2023-01-29T03:35:25;29.38;;;17.65;;
22064;SDS011;11197;53.110;8.468;2023-01-29T03:37:59;28.15;;;17.33;;
22064;SDS011;11197;53.110;8.468;2023-01-29T03:40:28;27.77;;;16.60;;
22064;SDS011;11197;53.110;8.468;2023-01-29T03:43:04;29.50;;;17.15;;
22064;SDS011;11197;53.110;8.468;2023-01-29T03:45:40;29.50;;;16.98;;
22064;SDS011;11197;53.110;8.468;2023-01-29T03:48:15;30.80;;;17.58;;
22064;SDS011;11197;53.110;8.468;2023-01-29T03:58:48;30.58;;;17.98;;
22064;SDS011;11197;53.110;8.468;2023-01-29T04:02:05;28.50;;;18.00;;
22064;SDS011;11197;53.110;8.468;2023-01-29T04:04:42;28.55;;;17.63;;
22064;SDS011;11197;53.110;8.468;2023-01-29T04:07:12;30.77;;;18.02;;
22064;SDS011;11197;53.110;8.468;2023-01-29T04:09:44;27.58;;;18.05;;
22064;SDS011;11197;53.110;8.468;2023-01-29T04:12:23;32.83;;;18.65;;
22064;SDS011;11197;53.110;8.468;2023-01-29T04:14:53;31.00;;;18.65;;
22064;SDS011;11197;53.110;8.468;2023-01-29T04:17:33;30.73;;;19.20;;
22064;SDS011;11197;53.110;8.468;2023-01-29T04:20:11;30.27;;;18.70;;
22064;SDS011;11197;53.110;8.468;2023-01-29T04:22:39;29.67;;;18.50;;
22064;SDS011;11197;53.110;8.468;2023-01-29T04:25:10;29.05;;;18.77;;
22064;SDS011;11197;53.110;8.468;2023-01-29T04:44:27;31.88;;;18.65;;
22064;SDS011;11197;53.110;8.468;2023-01-29T04:46:55;32.35;;;19.42;;
22064;SDS011;11197;53.110;8.468;2023-01-29T04:54:37;30.75;;;19.50;;
22064;SDS011;11197;53.110;8.468;2023-01-29T04:59:44;32.40;;;19.92;;
22064;SDS011;11197;53.110;8.468;2023-01-29T05:02:15;34.88;;;19.92;;
22064;SDS011;11197;53.110;8.468;2023-01-29T05:04:42;33.55;;;19.55;;
22064;SDS011;11197;53.110;8.468;2023-01-29T05:07:11;32.35;;;20.60;;
22064;SDS011;11197;53.110;8.468;2023-01-29T05:09:39;32.70;;;20.60;;
22064;SDS011;11197;53.110;8.468;2023-01-29T05:12:09;34.00;;;20.30;;
22064;SDS011;11197;53.110;8.468;2023-01-29T05:14:37;34.90;;;20.65;;
22064;SDS011;11197;53.110;8.468;2023-01-29T05:17:08;33.53;;;20.20;;
22064;SDS011;11197;53.110;8.468;2023-01-29T05:19:38;31.92;;;20.10;;
22064;SDS011;11197;53.110;8.468;2023-01-29T05:22:04;32.92;;;19.55;;
22064;SDS011;11197;53.110;8.468;2023-01-29T05:24:30;32.53;;;20.63;;
22064;SDS011;11197;53.110;8.468;2023-01-29T05:26:56;33.30;;;20.45;;
22064;SDS011;11197;53.110;8.468;2023-01-29T05:29:45;36.30;;;20.95;;
22064;SDS011;11197;53.110;8.468;2023-01-29T05:32:11;35.60;;;20.17;;
22064;SDS011;11197;53.110;8.468;2023-01-29T05:34:37;33.55;;;20.10;;
22064;SDS011;11197;53.110;8.468;2023-01-29T05:37:03;32.63;;;20.55;;
22064;SDS011;11197;53.110;8.468;2023-01-29T05:39:29;34.00;;;21.10;;
22064;SDS011;11197;53.110;8.468;2023-01-29T05:41:55;35.72;;;21.58;;
22064;SDS011;11197;53.110;8.468;2023-01-29T05:44:20;31.55;;;19.80;;
22064;SDS011;11197;53.110;8.468;2023-01-29T05:46:46;31.73;;;20.58;;
22064;SDS011;11197;53.110;8.468;2023-01-29T05:49:15;34.28;;;20.95;;
22064;SDS011;11197;53.110;8.468;2023-01-29T05:51:42;37.17;;;22.30;;
22064;SDS011;11197;53.110;8.468;2023-01-29T05:54:10;36.15;;;22.05;;
22064;SDS011;11197;53.110;8.468;2023-01-29T05:56:37;35.75;;;22.13;;
22064;SDS011;11197;53.110;8.468;2023-01-29T05:59:03;35.50;;;21.83;;
22064;SDS011;11197;53.110;8.468;2023-01-29T06:01:30;36.20;;;22.25;;
22064;SDS011;11197;53.110;8.468;2023-01-29T06:03:56;34.90;;;22.80;;
22064;SDS011;11197;53.110;8.468;2023-01-29T06:06:22;40.58;;;23.23;;
22064;SDS011;11197;53.110;8.468;2023-01-29T06:08:49;36.67;;;23.42;;
22064;SDS011;11197;53.110;8.468;2023-01-29T06:11:15;37.38;;;23.33;;
22064;SDS011;11197;53.110;8.468;2023-01-29T06:13:43;38.05;;;22.98;;
22064;SDS011;11197;53.110;8.468;2023-01-29T06:16:10;39.10;;;24.10;;
22064;SDS011;11197;53.110;8.468;2023-01-29T06:18:37;39.95;;;24.05;;
22064;SDS011;11197;53.110;8.468;2023-01-29T06:21:05;36.92;;;23.48;;
22064;SDS011;11197;53.110;8.468;2023-01-29T06:23:32;36.33;;;23.02;;
22064;SDS011;11197;53.110;8.468;2023-01-29T06:25:59;38.22;;;24.50;;
22064;SDS011;11197;53.110;8.468;2023-01-29T06:28:25;40.60;;;23.90;;
22064;SDS011;11197;53.110;8.468;2023-01-29T06:30:51;41.90;;;23.85;;
22064;SDS011;11197;53.110;8.468;2023-01-29T06:33:17;37.55;;;24.00;;
22064;SDS011;11197;53.110;8.468;2023-01-29T06:35:46;43.40;;;25.45;;
22064;SDS011;11197;53.110;8.468;2023-01-29T06:38:11;41.88;;;24.73;;
22064;SDS011;11197;53.110;8.468;2023-01-29T06:40:37;40.70;;;25.33;;
22064;SDS011;11197;53.110;8.468;2023-01-29T06:43:03;39.65;;;24.83;;
22064;SDS011;11197;53.110;8.468;2023-01-29T06:45:29;39.40;;;24.27;;
22064;SDS011;11197;53.110;8.468;2023-01-29T06:47:55;41.08;;;24.38;;
22064;SDS011;11197;53.110;8.468;2023-01-29T06:50:21;42.90;;;24.35;;
22064;SDS011;11197;53.110;8.468;2023-01-29T06:52:46;44.97;;;25.23;;
22064;SDS011;11197;53.110;8.468;2023-01-29T06:55:12;40.85;;;23.77;;
22064;SDS011;11197;53.110;8.468;2023-01-29T06:57:38;39.67;;;24.88;;
22064;SDS011;11197;53.110;8.468;2023-01-29T07:00:04;40.03;;;25.00;;
22064;SDS011;11197;53.110;8.468;2023-01-29T07:02:30;39.50;;;24.38;;
22064;SDS011;11197;53.110;8.468;2023-01-29T07:04:56;43.33;;;25.77;;
22064;SDS011;11197;53.110;8.468;2023-01-29T07:07:22;45.47;;;24.80;;
22064;SDS011;11197;53.110;8.468;2023-01-29T07:09:48;43.65;;;25.98;;
22064;SDS011;11197;53.110;8.468;2023-01-29T07:12:14;43.92;;;26.38;;
22064;SDS011;11197;53.110;8.468;2023-01-29T07:14:40;47.65;;;25.75;;
22064;SDS011;11197;53.110;8.468;2023-01-29T07:17:05;44.75;;;25.75;;
22064;SDS011;11197;53.110;8.468;2023-01-29T07:19:31;42.45;;;26.15;;
22064;SDS011;11197;53.110;8.468;2023-01-29T07:21:57;41.33;;;25.92;;
22064;SDS011;11197;53.110;8.468;2023-01-29T07:24:27;43.22;;;26.35;;
22064;SDS011;11197;53.110;8.468;2023-01-29T07:26:53;41.60;;;25.63;;
22064;SDS011;11197;53.110;8.468;2023-01-29T07:29:19;44.05;;;27.20;;
22064;SDS011;11197;53.110;8.468;2023-01-29T07:31:45;43.80;;;25.58;;
22064;SDS011;11197;53.110;8.468;2023-01-29T07:34:10;43.75;;;25.83;;
22064;SDS011;11197;53.110;8.468;2023-01-29T07:36:36;45.40;;;26.52;;
22064;SDS011;11197;53.110;8.468;2023-01-29T07:39:02;44.47;;;26.33;;
22064;SDS011;11197;53.110;8.468;2023-01-29T07:41:28;43.75;;;26.65;;
22064;SDS011;11197;53.110;8.468;2023-01-29T07:43:58;44.78;;;25.73;;
22064;SDS011;11197;53.110;8.468;2023-01-29T07:46:24;42.97;;;26.08;;
22064;SDS011;11197;53.110;8.468;2023-01-29T07:48:50;42.67;;;26.25;;
22064;SDS011;11197;53.110;8.468;2023-01-29T07:51:16;45.28;;;26.80;;
22064;SDS011;11197;53.110;8.468;2023-01-29T07:53:42;46.22;;;28.13;;
22064;SDS011;11197;53.110;8.468;2023-01-29T07:56:09;41.33;;;25.85;;
22064;SDS011;11197;53.110;8.468;2023-01-29T07:58:35;43.70;;;26.30;;
22064;SDS011;11197;53.110;8.468;2023-01-29T08:01:04;43.65;;;26.60;;
22064;SDS011;11197;53.110;8.468;2023-01-29T08:03:32;48.80;;;27.75;;
22064;SDS011;11197;53.110;8.468;2023-01-29T08:05:59;43.75;;;25.85;;
22064;SDS011;11197;53.110;8.468;2023-01-29T08:08:25;42.33;;;27.27;;
22064;SDS011;11197;53.110;8.468;2023-01-29T08:10:50;46.00;;;27.23;;
22064;SDS011;11197;53.110;8.468;2023-01-29T08:13:16;43.20;;;26.50;;
22064;SDS011;11197;53.110;8.468;2023-01-29T08:15:43;44.08;;;27.10;;
22064;SDS011;11197;53.110;8.468;2023-01-29T08:18:13;50.28;;;25.55;;
22064;SDS011;11197;53.110;8.468;2023-01-29T08:20:39;41.75;;;25.75;;
22064;SDS011;11197;53.110;8.468;2023-01-29T08:23:06;40.50;;;24.33;;
22064;SDS011;11197;53.110;8.468;2023-01-29T08:25:34;43.47;;;26.90;;
22064;SDS011;11197;53.110;8.468;2023-01-29T08:28:00;41.60;;;26.00;;
22064;SDS011;11197;53.110;8.468;2023-01-29T08:30:27;43.60;;;26.02;;
22064;SDS011;11197;53.110;8.468;2023-01-29T08:32:56;40.22;;;24.25;;
22064;SDS011;11197;53.110;8.468;2023-01-29T08:35:22;38.97;;;23.88;;
22064;SDS011;11197;53.110;8.468;2023-01-29T08:37:55;43.42;;;25.60;;
22064;SDS011;11197;53.110;8.468;2023-01-29T08:40:26;40.28;;;25.65;;
22064;SDS011;11197;53.110;8.468;2023-01-29T08:42:56;38.80;;;23.70;;
22064;SDS011;11197;53.110;8.468;2023-01-29T08:45:23;37.08;;;24.08;;
22064;SDS011;11197;53.110;8.468;2023-01-29T08:47:51;37.42;;;23.10;;
22064;SDS011;11197;53.110;8.468;2023-01-29T08:50:17;36.22;;;23.02;;
22064;SDS011;11197;53.110;8.468;2023-01-29T08:52:44;41.25;;;25.40;;
22064;SDS011;11197;53.110;8.468;2023-01-29T08:55:10;36.88;;;23.33;;
22064;SDS011;11197;53.110;8.468;2023-01-29T08:57:37;32.95;;;21.33;;
22064;SDS011;11197;53.110;8.468;2023-01-29T09:00:04;34.03;;;22.20;;
22064;SDS011;11197;53.110;8.468;2023-01-29T09:02:31;36.20;;;22.65;;
22064;SDS011;11197;53.110;8.468;2023-01-29T09:04:57;33.22;;;20.95;;
22064;SDS011;11197;53.110;8.468;2023-01-29T09:07:23;31.88;;;21.15;;
22064;SDS011;11197;53.110;8.468;2023-01-29T09:09:49;33.58;;;21.42;;
22064;SDS011;11197;53.110;8.468;2023-01-29T09:12:15;33.80;;;21.60;;
22064;SDS011;11197;53.110;8.468;2023-01-29T09:14:41;34.10;;;21.85;;
22064;SDS011;11197;53.110;8.468;2023-01-29T09:17:07;34.88;;;22.15;;
22064;SDS011;11197;53.110;8.468;2023-01-29T09:19:32;35.00;;;21.38;;
22064;SDS011;11197;53.110;8.468;2023-01-29T09:21:58;34.47;;;21.83;;
22064;SDS011;11197;53.110;8.468;2023-01-29T09:24:24;33.22;;;21.38;;
22064;SDS011;11197;53.110;8.468;2023-01-29T09:26:50;35.22;;;21.38;;
22064;SDS011;11197;53.110;8.468;2023-01-29T09:29:16;32.33;;;21.30;;
22064;SDS011;11197;53.110;8.468;2023-01-29T09:31:42;32.10;;;20.55;;
22064;SDS011;11197;53.110;8.468;2023-01-29T09:34:08;32.25;;;20.98;;
22064;SDS011;11197;53.110;8.468;2023-01-29T09:36:34;33.42;;;21.02;;
22064;SDS011;11197;53.110;8.468;2023-01-29T09:39:00;35.30;;;20.75;;
22064;SDS011;11197;53.110;8.468;2023-01-29T09:46:43;32.55;;;21.25;;
22064;SDS011;11197;53.110;8.468;2023-01-29T09:51:42;33.58;;;21.67;;
22064;SDS011;11197;53.110;8.468;2023-01-29T09:54:32;30.48;;;20.42;;
22064;SDS011;11197;53.110;8.468;2023-01-29T09:57:14;32.92;;;20.15;;
22064;SDS011;11197;53.110;8.468;2023-01-29T09:59:49;29.08;;;19.50;;
22064;SDS011;11197;53.110;8.468;2023-01-29T10:02:34;32.38;;;20.08;;
22064;SDS011;11197;53.110;8.468;2023-01-29T10:10:57;34.25;;;20.20;;
22064;SDS011;11197;53.110;8.468;2023-01-29T10:21:36;30.33;;;20.10;;
22064;SDS011;11197;53.110;8.468;2023-01-29T10:26:59;31.40;;;20.13;;
22064;SDS011;11197;53.110;8.468;2023-01-29T10:29:26;30.80;;;20.23;;
22064;SDS011;11197;53.110;8.468;2023-01-29T10:31:55;32.20;;;20.25;;
22064;SDS011;11197;53.110;8.468;2023-01-29T10:34:37;30.48;;;20.60;;
22064;SDS011;11197;53.110;8.468;2023-01-29T10:37:17;31.90;;;20.95;;
22064;SDS011;11197;53.110;8.468;2023-01-29T10:39:48;37.70;;;24.13;;
22064;SDS011;11197;53.110;8.468;2023-01-29T10:45:09;33.97;;;22.17;;
22064;SDS011;11197;53.110;8.468;2023-01-29T10:51:00;33.88;;;20.25;;
22064;SDS011;11197;53.110;8.468;2023-01-29T10:59:05;29.98;;;19.95;;
22064;SDS011;11197;53.110;8.468;2023-01-29T11:01:44;29.67;;;20.40;;
22064;SDS011;11197;53.110;8.468;2023-01-29T11:04:10;31.38;;;21.52;;
22064;SDS011;11197;53.110;8.468;2023-01-29T11:06:38;32.90;;;21.05;;
22064;SDS011;11197;53.110;8.468;2023-01-29T11:17:19;28.60;;;20.02;;
22064;SDS011;11197;53.110;8.468;2023-01-29T11:19:51;30.60;;;20.40;;
22064;SDS011;11197;53.110;8.468;2023-01-29T11:22:23;31.88;;;20.88;;
22064;SDS011;11197;53.110;8.468;2023-01-29T11:27:54;29.25;;;18.85;;
22064;SDS011;11197;53.110;8.468;2023-01-29T11:35:44;33.47;;;21.40;;
22064;SDS011;11197;53.110;8.468;2023-01-29T11:38:18;34.10;;;20.40;;
22064;SDS011;11197;53.110;8.468;2023-01-29T11:40:48;33.65;;;21.20;;
22064;SDS011;11197;53.110;8.468;2023-01-29T11:43:18;33.05;;;21.38;;
22064;SDS011;11197;53.110;8.468;2023-01-29T11:45:51;31.48;;;20.50;;
22064;SDS011;11197;53.110;8.468;2023-01-29T11:48:20;32.13;;;20.55;;
22064;SDS011;11197;53.110;8.468;2023-01-29T11:50:56;37.15;;;21.48;;
22064;SDS011;11197;53.110;8.468;2023-01-29T11:55:58;34.08;;;20.83;;
22064;SDS011;11197;53.110;8.468;2023-01-29T11:58:26;32.58;;;21.58;;
22064;SDS011;11197;53.110;8.468;2023-01-29T12:00:57;32.80;;;20.73;;
22064;SDS011;11197;53.110;8.468;2023-01-29T12:06:05;30.70;;;20.75;;
22064;SDS011;11197;53.110;8.468;2023-01-29T12:08:38;33.95;;;21.27;;
22064;SDS011;11197;53.110;8.468;2023-01-29T12:13:36;32.80;;;21.75;;
22064;SDS011;11197;53.110;8.468;2023-01-29T12:16:27;29.63;;;20.05;;
22064;SDS011;11197;53.110;8.468;2023-01-29T12:19:40;31.08;;;20.92;;
22064;SDS011;11197;53.110;8.468;2023-01-29T12:22:09;34.58;;;21.30;;
22064;SDS011;11197;53.110;8.468;2023-01-29T12:24:43;32.00;;;21.73;;
22064;SDS011;11197;53.110;8.468;2023-01-29T12:27:24;36.53;;;21.08;;
22064;SDS011;11197;53.110;8.468;2023-01-29T12:35:37;35.30;;;21.50;;
22064;SDS011;11197;53.110;8.468;2023-01-29T12:40:44;34.97;;;22.83;;
22064;SDS011;11197;53.110;8.468;2023-01-29T12:43:31;34.58;;;21.98;;
22064;SDS011;11197;53.110;8.468;2023-01-29T12:46:05;33.03;;;21.95;;
22064;SDS011;11197;53.110;8.468;2023-01-29T12:48:45;35.50;;;22.33;;
22064;SDS011;11197;53.110;8.468;2023-01-29T12:51:17;35.10;;;22.17;;
22064;SDS011;11197;53.110;8.468;2023-01-29T12:53:55;40.58;;;26.30;;
22064;SDS011;11197;53.110;8.468;2023-01-29T12:56:30;37.42;;;24.80;;
22064;SDS011;11197;53.110;8.468;2023-01-29T12:59:53;36.13;;;23.90;;
22064;SDS011;11197;53.110;8.468;2023-01-29T13:02:08;36.88;;;23.55;;
22064;SDS011;11197;53.110;8.468;2023-01-29T13:07:38;35.03;;;23.02;;
22064;SDS011;11197;53.110;8.468;2023-01-29T13:10:19;32.63;;;22.42;;
22064;SDS011;11197;53.110;8.468;2023-01-29T13:12:54;34.72;;;22.60;;
22064;SDS011;11197;53.110;8.468;2023-01-29T13:15:39;36.83;;;23.52;;
22064;SDS011;11197;53.110;8.468;2023-01-29T13:21:02;35.55;;;23.17;;
22064;SDS011;11197;53.110;8.468;2023-01-29T13:23:36;36.55;;;23.65;;
22064;SDS011;11197;53.110;8.468;2023-01-29T13:26:23;38.95;;;24.63;;
22064;SDS011;11197;53.110;8.468;2023-01-29T13:28:50;36.63;;;23.08;;
22064;SDS011;11197;53.110;8.468;2023-01-29T13:31:20;38.88;;;22.65;;
22064;SDS011;11197;53.110;8.468;2023-01-29T13:33:55;35.00;;;22.85;;
22064;SDS011;11197;53.110;8.468;2023-01-29T13:36:25;38.97;;;23.27;;
22064;SDS011;11197;53.110;8.468;2023-01-29T13:41:38;35.67;;;22.63;;
22064;SDS011;11197;53.110;8.468;2023-01-29T13:44:29;35.40;;;23.38;;
22064;SDS011;11197;53.110;8.468;2023-01-29T13:49:32;38.65;;;25.38;;
22064;SDS011;11197;53.110;8.468;2023-01-29T13:52:25;37.95;;;24.75;;
22064;SDS011;11197;53.110;8.468;2023-01-29T14:08:07;35.58;;;24.70;;
22064;SDS011;11197;53.110;8.468;2023-01-29T14:18:43;41.05;;;25.13;;
22064;SDS011;11197;53.110;8.468;2023-01-29T14:31:39;37.08;;;23.77;;
22064;SDS011;11197;53.110;8.468;2023-01-29T14:37:01;38.20;;;24.50;;
22064;SDS011;11197;53.110;8.468;2023-01-29T14:44:59;38.15;;;23.45;;
22064;SDS011;11197;53.110;8.468;2023-01-29T14:49:55;37.13;;;24.15;;
22064;SDS011;11197;53.110;8.468;2023-01-29T14:52:23;36.70;;;24.30;;
22064;SDS011;11197;53.110;8.468;2023-01-29T14:54:56;36.85;;;23.70;;
22064;SDS011;11197;53.110;8.468;2023-01-29T15:00:04;38.35;;;24.27;;
22064;SDS011;11197;53.110;8.468;2023-01-29T15:02:43;37.90;;;23.33;;
22064;SDS011;11197;53.110;8.468;2023-01-29T15:05:15;38.53;;;24.77;;
22064;SDS011;11197;53.110;8.468;2023-01-29T15:07:54;39.22;;;24.73;;
22064;SDS011;11197;53.110;8.468;2023-01-29T15:10:42;41.00;;;25.42;;
22064;SDS011;11197;53.110;8.468;2023-01-29T15:16:24;41.60;;;26.92;;
22064;SDS011;11197;53.110;8.468;2023-01-29T15:18:55;44.47;;;28.88;;
22064;SDS011;11197;53.110;8.468;2023-01-29T15:21:31;45.35;;;27.38;;
22064;SDS011;11197;53.110;8.468;2023-01-29T15:24:04;45.03;;;27.95;;
22064;SDS011;11197;53.110;8.468;2023-01-29T15:26:31;44.15;;;28.35;;
22064;SDS011;11197;53.110;8.468;2023-01-29T15:28:57;39.85;;;27.98;;
22064;SDS011;11197;53.110;8.468;2023-01-29T15:31:24;43.95;;;28.48;;
22064;SDS011;11197;53.110;8.468;2023-01-29T15:33:52;46.65;;;29.02;;
22064;SDS011;11197;53.110;8.468;2023-01-29T15:36:24;45.10;;;30.02;;
22064;SDS011;11197;53.110;8.468;2023-01-29T15:41:34;46.83;;;29.77;;
22064;SDS011;11197;53.110;8.468;2023-01-29T15:44:00;41.33;;;26.05;;
22064;SDS011;11197;53.110;8.468;2023-01-29T15:46:27;49.03;;;31.20;;
22064;SDS011;11197;53.110;8.468;2023-01-29T15:48:59;48.15;;;30.30;;
22064;SDS011;11197;53.110;8.468;2023-01-29T15:51:31;47.40;;;30.58;;
22064;SDS011;11197;53.110;8.468;2023-01-29T15:53:58;47.15;;;29.48;;
22064;SDS011;11197;53.110;8.468;2023-01-29T15:56:30;46.30;;;30.58;;
22064;SDS011;11197;53.110;8.468;2023-01-29T15:59:01;46.22;;;29.95;;
22064;SDS011;11197;53.110;8.468;2023-01-29T16:01:28;48.05;;;29.80;;
22064;SDS011;11197;53.110;8.468;2023-01-29T16:03:56;44.75;;;29.88;;
22064;SDS011;11197;53.110;8.468;2023-01-29T16:06:27;43.35;;;28.10;;
22064;SDS011;11197;53.110;8.468;2023-01-29T16:08:58;44.60;;;30.85;;
22064;SDS011;11197;53.110;8.468;2023-01-29T16:11:24;44.90;;;29.77;;
22064;SDS011;11197;53.110;8.468;2023-01-29T16:13:50;45.95;;;30.63;;
22064;SDS011;11197;53.110;8.468;2023-01-29T16:16:21;45.60;;;30.20;;
22064;SDS011;11197;53.110;8.468;2023-01-29T16:18:49;43.97;;;29.15;;
22064;SDS011;11197;53.110;8.468;2023-01-29T16:23:50;45.38;;;30.30;;
22064;SDS011;11197;53.110;8.468;2023-01-29T16:26:20;46.70;;;30.03;;
22064;SDS011;11197;53.110;8.468;2023-01-29T16:28:49;45.65;;;30.33;;
22064;SDS011;11197;53.110;8.468;2023-01-29T16:31:23;43.33;;;29.15;;
22064;SDS011;11197;53.110;8.468;2023-01-29T16:33:52;47.65;;;31.13;;
22064;SDS011;11197;53.110;8.468;2023-01-29T16:36:21;46.60;;;30.73;;
22064;SDS011;11197;53.110;8.468;2023-01-29T16:39:13;52.55;;;34.33;;
22064;SDS011;11197;53.110;8.468;2023-01-29T16:44:39;50.60;;;31.38;;
22064;SDS011;11197;53.110;8.468;2023-01-29T16:47:10;47.42;;;30.70;;
22064;SDS011;11197;53.110;8.468;2023-01-29T16:49:41;47.80;;;31.50;;
22064;SDS011;11197;53.110;8.468;2023-01-29T16:54:49;46.40;;;31.00;;
22064;SDS011;11197;53.110;8.468;2023-01-29T16:57:17;47.33;;;31.08;;
22064;SDS011;11197;53.110;8.468;2023-01-29T16:59:46;48.15;;;31.73;;
22064;SDS011;11197;53.110;8.468;2023-01-29T17:02:27;49.80;;;31.40;;
22064;SDS011;11197;53.110;8.468;2023-01-29T17:05:15;48.50;;;31.52;;
22064;SDS011;11197;53.110;8.468;2023-01-29T17:07:45;50.47;;;31.65;;
22064;SDS011;11197;53.110;8.468;2023-01-29T17:10:15;50.35;;;32.38;;
22064;SDS011;11197;53.110;8.468;2023-01-29T17:12:46;50.03;;;32.25;;
22064;SDS011;11197;53.110;8.468;2023-01-29T17:18:18;51.08;;;32.92;;
22064;SDS011;11197;53.110;8.468;2023-01-29T17:20:46;53.03;;;33.35;;
22064;SDS011;11197;53.110;8.468;2023-01-29T17:23:12;53.03;;;32.08;;
22064;SDS011;11197;53.110;8.468;2023-01-29T17:25:38;50.35;;;33.22;;
22064;SDS011;11197;53.110;8.468;2023-01-29T17:28:05;49.25;;;31.40;;
22064;SDS011;11197;53.110;8.468;2023-01-29T17:30:32;48.28;;;31.60;;
22064;SDS011;11197;53.110;8.468;2023-01-29T17:33:07;48.47;;;31.08;;
22064;SDS011;11197;53.110;8.468;2023-01-29T17:35:38;50.58;;;32.00;;
22064;SDS011;11197;53.110;8.468;2023-01-29T17:38:04;51.28;;;32.88;;
22064;SDS011;11197;53.110;8.468;2023-01-29T17:43:07;54.50;;;33.05;;
22064;SDS011;11197;53.110;8.468;2023-01-29T17:45:36;54.72;;;33.65;;
22064;SDS011;11197;53.110;8.468;2023-01-29T17:48:03;53.40;;;32.45;;
22064;SDS011;11197;53.110;8.468;2023-01-29T17:50:42;54.67;;;32.90;;
22064;SDS011;11197;53.110;8.468;2023-01-29T17:53:13;54.92;;;33.55;;
22064;SDS011;11197;53.110;8.468;2023-01-29T17:55:40;53.25;;;33.33;;
22064;SDS011;11197;53.110;8.468;2023-01-29T17:58:27;56.72;;;33.90;;
22064;SDS011;11197;53.110;8.468;2023-01-29T18:00:53;53.72;;;33.17;;
22064;SDS011;11197;53.110;8.468;2023-01-29T18:03:19;52.85;;;31.83;;
22064;SDS011;11197;53.110;8.468;2023-01-29T18:05:46;55.45;;;33.40;;
22064;SDS011;11197;53.110;8.468;2023-01-29T18:08:18;55.70;;;33.60;;
22064;SDS011;11197;53.110;8.468;2023-01-29T18:10:58;55.17;;;33.30;;